createdAt,value
2022-11-07T00:01:47.310Z,6.44
2022-11-07T00:04:15.659Z,6.52
2022-11-07T00:06:43.159Z,6.52
2022-11-07T00:09:10.824Z,6.61
2022-11-07T00:11:38.292Z,6.63
2022-11-07T00:14:05.909Z,6.68
2022-11-07T00:16:33.663Z,6.72
2022-11-07T00:19:01.244Z,6.74
2022-11-07T00:21:28.702Z,6.73
2022-11-07T00:23:56.232Z,6.77
2022-11-07T00:26:23.848Z,6.69
2022-11-07T00:28:51.308Z,6.71
2022-11-07T00:31:19.953Z,6.66
2022-11-07T00:33:47.583Z,6.65
2022-11-07T00:36:20.662Z,6.64
2022-11-07T00:38:48.373Z,6.61
2022-11-07T00:41:16.536Z,6.56
2022-11-07T00:43:44.680Z,6.53
2022-11-07T00:46:14.304Z,6.52
2022-11-07T00:48:42.151Z,6.54
2022-11-07T00:51:15.898Z,6.48
2022-11-07T00:53:43.522Z,6.51
2022-11-07T00:56:15.513Z,6.50
2022-11-07T00:58:44.497Z,6.46
2022-11-07T01:01:20.503Z,6.43
2022-11-07T01:04:07.624Z,6.36
2022-11-07T01:06:37.921Z,6.29
2022-11-07T01:09:10.712Z,6.27
2022-11-07T01:11:39.420Z,6.28
2022-11-07T01:14:07.843Z,6.29
2022-11-07T01:16:35.713Z,6.32
2022-11-07T01:19:03.730Z,6.31
2022-11-07T01:21:31.752Z,6.28
2022-11-07T01:24:00.380Z,6.31
2022-11-07T01:26:27.989Z,6.37
2022-11-07T01:28:55.458Z,6.35
2022-11-07T01:31:23.029Z,6.32
2022-11-07T01:33:50.521Z,6.29
2022-11-07T01:36:18.674Z,6.23
2022-11-07T01:38:50.834Z,6.20
2022-11-07T01:41:25.699Z,6.23
2022-11-07T01:44:06.489Z,6.23
2022-11-07T01:46:45.026Z,6.24
2022-11-07T01:49:17.895Z,6.20
2022-11-07T01:51:47.689Z,6.20
2022-11-07T01:54:20.093Z,6.20
2022-11-07T01:56:48.549Z,6.19
2022-11-07T01:59:21.173Z,6.25
2022-11-07T02:01:49.884Z,6.27
2022-11-07T02:04:20.433Z,6.32
2022-11-07T02:06:53.113Z,6.31
2022-11-07T02:09:20.723Z,6.29
2022-11-07T02:11:48.410Z,6.26
2022-11-07T02:14:17.044Z,6.24
2022-11-07T02:16:45.104Z,6.24
2022-11-07T02:19:40.556Z,6.18
2022-11-07T02:22:54.366Z,6.07
2022-11-07T02:25:22.713Z,6.11
2022-11-07T02:27:55.763Z,6.03
2022-11-07T02:30:27.563Z,5.96
2022-11-07T02:32:55.249Z,5.89
2022-11-07T02:35:43.864Z,5.86
2022-11-07T02:38:25.549Z,5.82
2022-11-07T02:41:00.464Z,5.78
2022-11-07T02:43:30.344Z,5.69
2022-11-07T02:46:00.660Z,5.70
2022-11-07T02:48:30.296Z,5.67
2022-11-07T02:50:57.961Z,5.62
2022-11-07T02:53:25.342Z,5.65
2022-11-07T02:55:52.852Z,5.60
2022-11-07T02:58:20.273Z,5.64
2022-11-07T03:00:47.781Z,5.80
2022-11-07T03:03:15.586Z,5.91
2022-11-07T03:05:43.232Z,6.04
2022-11-07T03:08:10.801Z,5.97
2022-11-07T03:10:38.294Z,5.90
2022-11-07T03:13:05.828Z,5.85
2022-11-07T03:15:33.252Z,5.82
2022-11-07T03:18:00.818Z,5.86
2022-11-07T03:20:28.645Z,5.95
2022-11-07T03:22:56.071Z,5.96
2022-11-07T03:25:23.554Z,6.00
2022-11-07T03:27:51.674Z,6.04
2022-11-07T03:30:19.232Z,6.05
2022-11-07T03:32:46.723Z,6.00
2022-11-07T03:35:14.291Z,5.93
2022-11-07T03:37:41.730Z,5.85
2022-11-07T03:40:09.514Z,5.76
2022-11-07T03:42:40.881Z,5.71
2022-11-07T03:45:09.940Z,5.74
2022-11-07T03:47:38.822Z,5.71
2022-11-07T03:50:08.997Z,5.66
2022-11-07T03:52:36.473Z,5.66
2022-11-07T03:55:04.394Z,5.59
2022-11-07T03:57:32.900Z,5.55
2022-11-07T04:00:00.570Z,5.47
2022-11-07T04:02:28.190Z,5.39
2022-11-07T04:04:55.769Z,5.35
2022-11-07T04:07:23.222Z,5.26
2022-11-07T04:09:50.729Z,5.20
2022-11-07T04:12:36.549Z,5.13
2022-11-07T04:15:22.879Z,5.13
2022-11-07T04:17:50.402Z,5.09
2022-11-07T04:20:17.850Z,5.02
2022-11-07T04:22:45.325Z,4.99
2022-11-07T04:25:12.842Z,4.96
2022-11-07T04:27:43.275Z,4.92
2022-11-07T04:30:19.920Z,4.91
2022-11-07T04:32:48.963Z,4.93
2022-11-07T04:35:17.144Z,4.94
2022-11-07T04:37:44.715Z,4.93
2022-11-07T04:40:12.593Z,5.04
2022-11-07T04:42:40.644Z,5.11
2022-11-07T04:45:08.677Z,5.12
2022-11-07T04:47:40.219Z,5.14
2022-11-07T04:50:11.481Z,5.23
2022-11-07T04:52:39.233Z,5.44
2022-11-07T04:55:09.049Z,5.40
2022-11-07T04:57:36.545Z,5.32
2022-11-07T05:00:04.895Z,5.25
2022-11-07T05:02:32.550Z,5.16
2022-11-07T05:05:00.012Z,5.06
2022-11-07T05:07:27.553Z,5.03
2022-11-07T05:09:55.012Z,4.97
2022-11-07T05:12:22.492Z,4.93
2022-11-07T05:14:49.963Z,5.05
2022-11-07T05:17:17.712Z,5.11
2022-11-07T05:19:45.373Z,5.23
2022-11-07T05:22:31.563Z,5.36
2022-11-07T05:24:59.081Z,5.45
2022-11-07T05:27:26.552Z,5.55
2022-11-07T05:29:54.013Z,5.65
2022-11-07T05:32:21.422Z,5.63
2022-11-07T05:34:49.688Z,5.60
2022-11-07T05:37:17.132Z,5.54
2022-11-07T05:39:44.593Z,5.53
2022-11-07T05:42:12.112Z,5.51
2022-11-07T05:44:39.593Z,5.50
2022-11-07T05:47:07.008Z,5.50
2022-11-07T05:49:34.451Z,5.48
2022-11-07T05:52:01.959Z,5.47
2022-11-07T05:54:30.453Z,5.47
2022-11-07T05:56:58.480Z,5.40
2022-11-07T05:59:26.136Z,5.33
2022-11-07T06:01:54.186Z,5.23
2022-11-07T06:04:21.783Z,5.28
2022-11-07T06:06:49.222Z,5.23
2022-11-07T06:09:16.718Z,5.23
2022-11-07T06:11:44.198Z,5.26
2022-11-07T06:14:11.611Z,5.27
2022-11-07T06:16:39.145Z,5.32
2022-11-07T06:19:06.643Z,5.34
2022-11-07T06:21:35.472Z,5.41
2022-11-07T06:24:03.527Z,5.52
2022-11-07T06:26:31.148Z,5.52
2022-11-07T06:28:58.662Z,5.62
2022-11-07T06:31:26.192Z,5.89
2022-11-07T06:33:53.669Z,6.35
2022-11-07T06:36:21.171Z,6.82
2022-11-07T06:38:53.430Z,7.32
2022-11-07T06:41:21.000Z,7.82
2022-11-07T06:43:51.161Z,8.27
2022-11-07T06:46:20.071Z,8.66
2022-11-07T06:48:47.542Z,9.03
2022-11-07T06:51:15.243Z,9.40
2022-11-07T06:53:42.674Z,9.65
2022-11-07T06:56:14.548Z,9.89
2022-11-07T06:58:42.518Z,10.13
2022-11-07T07:01:16.675Z,10.45
2022-11-07T07:03:44.583Z,10.62
2022-11-07T07:06:15.017Z,10.73
2022-11-07T07:08:43.891Z,10.99
2022-11-07T07:11:14.100Z,11.13
2022-11-07T07:13:41.982Z,11.05
2022-11-07T07:16:10.044Z,10.90
2022-11-07T07:18:37.512Z,11.07
2022-11-07T07:21:10.903Z,10.89
2022-11-07T07:23:39.034Z,11.05
2022-11-07T07:26:10.066Z,11.17
2022-11-07T07:28:37.628Z,11.07
2022-11-07T07:31:14.334Z,11.19
2022-11-07T07:33:42.836Z,11.19
2022-11-07T07:36:14.212Z,11.33
2022-11-07T07:38:44.071Z,11.51
2022-11-07T07:41:11.532Z,10.92
2022-11-07T07:43:39.044Z,11.18
2022-11-07T07:46:08.045Z,11.29
2022-11-07T07:48:35.734Z,11.61
2022-11-07T07:51:03.603Z,11.56
2022-11-07T07:53:31.159Z,11.43
2022-11-07T07:55:59.608Z,11.52
2022-11-07T07:58:27.802Z,11.43
2022-11-07T08:00:58.429Z,11.31
2022-11-07T08:03:31.974Z,11.34
2022-11-07T08:06:07.707Z,11.38
2022-11-07T08:08:38.156Z,11.41
2022-11-07T08:11:08.351Z,11.59
2022-11-07T08:13:36.854Z,11.81
2022-11-07T08:16:07.548Z,11.87
2022-11-07T08:18:41.035Z,11.83
2022-11-07T08:21:09.437Z,11.79
2022-11-07T08:23:36.975Z,11.79
2022-11-07T08:26:05.408Z,12.00
2022-11-07T08:28:35.743Z,12.25
2022-11-07T08:31:06.489Z,12.51
2022-11-07T08:33:34.735Z,12.63
2022-11-07T08:36:04.179Z,12.72
2022-11-07T08:38:33.556Z,12.57
2022-11-07T08:41:01.258Z,12.45
2022-11-07T08:43:28.890Z,12.34
2022-11-07T08:45:56.462Z,12.16
2022-11-07T08:48:25.134Z,12.15
2022-11-07T08:50:57.123Z,12.26
2022-11-07T08:53:26.856Z,12.67
2022-11-07T08:56:01.892Z,12.81
2022-11-07T08:58:30.310Z,12.98
2022-11-07T09:00:58.359Z,12.95
2022-11-07T09:06:13.665Z,12.88
2022-11-07T09:08:41.248Z,12.91
2022-11-07T09:11:09.078Z,12.95
2022-11-07T09:13:37.047Z,12.96
2022-11-07T09:16:05.821Z,12.94
2022-11-07T09:18:33.585Z,12.99
2022-11-07T09:21:01.053Z,13.17
2022-11-07T09:23:28.652Z,13.06
2022-11-07T09:25:59.918Z,13.07
2022-11-07T09:28:27.697Z,13.02
2022-11-07T09:30:56.724Z,13.15
2022-11-07T09:33:25.143Z,13.19
2022-11-07T09:35:53.413Z,13.29
2022-11-07T09:38:21.087Z,13.43
2022-11-07T09:41:10.175Z,13.49
2022-11-07T09:44:15.055Z,13.70
2022-11-07T09:47:00.895Z,13.63
2022-11-07T09:49:52.363Z,13.58
2022-11-07T09:52:38.666Z,13.62
2022-11-07T09:55:41.483Z,13.72
2022-11-07T09:58:25.884Z,13.67
2022-11-07T10:00:57.480Z,13.83
2022-11-07T10:03:25.553Z,13.96
2022-11-07T10:06:06.326Z,14.04
2022-11-07T10:09:06.485Z,14.05
2022-11-07T10:11:42.604Z,14.04
2022-11-07T10:14:38.012Z,13.96
2022-11-07T10:17:36.531Z,14.06
2022-11-07T10:20:25.186Z,13.90
2022-11-07T10:22:58.789Z,14.02
2022-11-07T10:25:42.091Z,13.93
2022-11-07T10:28:18.601Z,13.90
2022-11-07T10:30:51.963Z,14.07
2022-11-07T10:33:44.882Z,14.23
2022-11-07T10:36:25.972Z,14.37
2022-11-07T10:38:53.941Z,14.41
2022-11-07T10:41:24.252Z,14.48
2022-11-07T10:44:04.864Z,14.60
2022-11-07T10:46:47.790Z,14.54
2022-11-07T10:49:19.179Z,14.31
2022-11-07T10:51:47.380Z,14.21
2022-11-07T10:54:29.674Z,13.96
2022-11-07T10:57:22.130Z,13.95
2022-11-07T10:59:52.598Z,14.02
2022-11-07T11:02:30.009Z,14.16
2022-11-07T11:05:00.645Z,14.31
2022-11-07T11:07:41.802Z,14.23
2022-11-07T11:10:27.501Z,14.09
2022-11-07T11:12:55.185Z,13.92
2022-11-07T11:15:25.487Z,13.85
2022-11-07T11:18:02.242Z,13.78
2022-11-07T11:20:40.758Z,13.82
2022-11-07T11:23:19.058Z,13.88
2022-11-07T11:25:49.060Z,13.86
2022-11-07T11:28:25.414Z,13.86
2022-11-07T11:31:01.887Z,13.73
2022-11-07T11:34:30.822Z,13.72
2022-11-07T11:37:09.554Z,13.56
2022-11-07T11:39:43.004Z,13.58
2022-11-07T11:42:27.944Z,13.53
2022-11-07T11:45:00.023Z,13.51
2022-11-07T11:47:34.831Z,13.48
2022-11-07T11:50:15.768Z,13.26
2022-11-07T11:52:44.133Z,13.28
2022-11-07T11:55:16.685Z,13.17
2022-11-07T11:57:50.014Z,13.12
2022-11-07T12:04:47.442Z,12.97
2022-11-07T12:07:59.236Z,12.79
2022-11-07T12:10:39.976Z,12.86
2022-11-07T12:13:36.689Z,12.82
2022-11-07T12:16:15.901Z,12.84
2022-11-07T12:18:58.660Z,12.77
2022-11-07T12:21:32.979Z,12.80
2022-11-07T12:24:20.691Z,12.76
2022-11-07T12:27:09.119Z,12.76
2022-11-07T12:30:14.941Z,12.74
2022-11-07T12:33:08.642Z,12.71
2022-11-07T12:35:47.077Z,12.65
2022-11-07T12:38:42.452Z,12.53
2022-11-07T12:41:28.642Z,12.53
2022-11-07T12:44:20.921Z,12.48
2022-11-07T12:47:00.290Z,12.42
2022-11-07T12:49:41.009Z,12.39
2022-11-07T12:52:36.529Z,12.38
2022-11-07T12:55:24.170Z,12.41
2022-11-07T12:57:53.432Z,12.43
2022-11-07T13:00:27.644Z,12.41
2022-11-07T13:03:15.741Z,12.41
2022-11-07T13:05:55.841Z,12.40
2022-11-07T13:09:05.461Z,12.34
2022-11-07T13:11:35.612Z,12.31
2022-11-07T13:14:27.971Z,12.29
2022-11-07T13:16:58.222Z,12.30
2022-11-07T13:19:29.390Z,12.35
2022-11-07T13:22:24.467Z,12.42
2022-11-07T13:24:57.592Z,12.48
2022-11-07T13:27:33.921Z,12.54
2022-11-07T13:30:19.610Z,12.63
2022-11-07T13:32:49.826Z,12.59
2022-11-07T13:35:23.391Z,12.56
2022-11-07T13:38:15.439Z,12.58
2022-11-07T13:40:52.911Z,12.57
2022-11-07T13:43:27.534Z,12.56
2022-11-07T13:46:01.517Z,12.57
2022-11-07T13:48:41.569Z,12.61
2022-11-07T13:51:11.490Z,12.62
2022-11-07T13:53:54.251Z,12.57
2022-11-07T13:56:43.424Z,12.54
2022-11-07T13:59:20.906Z,12.48
2022-11-07T14:01:55.550Z,12.54
2022-11-07T14:04:23.250Z,12.52
2022-11-07T14:06:51.061Z,12.68
2022-11-07T14:09:20.547Z,12.63
2022-11-07T14:11:51.689Z,12.57
2022-11-07T14:14:24.660Z,12.53
2022-11-07T14:16:56.219Z,12.50
2022-11-07T14:19:28.420Z,12.49
2022-11-07T14:21:56.242Z,12.51
2022-11-07T14:24:27.381Z,12.46
2022-11-07T14:27:14.399Z,12.36
2022-11-07T14:29:55.311Z,12.34
2022-11-07T14:32:26.895Z,12.36
2022-11-07T14:34:56.990Z,12.30
2022-11-07T14:37:26.152Z,12.31
2022-11-07T14:39:54.014Z,12.29
2022-11-07T14:42:24.985Z,12.18
2022-11-07T14:44:56.760Z,12.13
2022-11-07T14:47:28.313Z,12.08
2022-11-07T14:49:56.806Z,12.04
2022-11-07T14:52:27.763Z,12.01
2022-11-07T14:55:17.854Z,11.97
2022-11-07T14:57:45.446Z,11.94
2022-11-07T15:00:15.318Z,11.90
2022-11-07T15:02:45.342Z,11.81
2022-11-07T15:05:26.704Z,11.70
2022-11-07T15:07:55.254Z,11.67
2022-11-07T15:10:29.226Z,11.67
2022-11-07T15:13:00.696Z,11.61
2022-11-07T15:15:33.671Z,11.59
2022-11-07T15:18:06.105Z,11.56
2022-11-07T15:20:33.647Z,11.53
2022-11-07T15:23:06.037Z,11.58
2022-11-07T15:25:35.518Z,11.55
2022-11-07T15:28:18.497Z,11.53
2022-11-07T15:30:47.247Z,11.53
2022-11-07T15:33:19.191Z,11.54
2022-11-07T15:35:49.003Z,11.54
2022-11-07T15:38:19.671Z,11.53
2022-11-07T15:40:49.488Z,11.48
2022-11-07T15:43:17.560Z,11.47
2022-11-07T15:45:45.655Z,11.39
2022-11-07T15:48:20.100Z,11.40
2022-11-07T15:50:49.875Z,11.39
2022-11-07T15:53:28.364Z,11.37
2022-11-07T15:55:58.687Z,11.34
2022-11-07T15:58:28.414Z,11.31
2022-11-07T16:00:57.389Z,11.26
2022-11-07T16:03:26.365Z,11.21
2022-11-07T16:05:57.872Z,11.20
2022-11-07T16:08:25.494Z,11.25
2022-11-07T16:11:02.615Z,11.11
2022-11-07T16:13:30.165Z,11.20
2022-11-07T16:16:00.975Z,11.05
2022-11-07T16:18:38.225Z,10.95
2022-11-07T16:21:06.118Z,10.68
2022-11-07T16:23:33.595Z,10.53
2022-11-07T16:26:01.644Z,10.58
2022-11-07T16:28:34.281Z,10.45
2022-11-07T16:31:02.816Z,10.39
2022-11-07T16:33:30.585Z,10.29
2022-11-07T16:36:07.833Z,10.22
2022-11-07T16:38:36.684Z,10.17
2022-11-07T16:41:04.192Z,10.08
2022-11-07T16:43:35.245Z,10.01
2022-11-07T16:46:03.254Z,10.00
2022-11-07T16:48:32.034Z,9.99
2022-11-07T16:50:59.534Z,10.00
2022-11-07T16:53:27.400Z,9.96
2022-11-07T16:55:56.278Z,9.98
2022-11-07T16:58:29.053Z,9.95
2022-11-07T17:01:00.137Z,9.86
2022-11-07T17:03:27.804Z,9.87
2022-11-07T17:05:58.126Z,9.82
2022-11-07T17:08:38.487Z,9.79
2022-11-07T17:11:06.392Z,9.73
2022-11-07T17:13:34.118Z,9.70
2022-11-07T17:16:01.804Z,9.59
2022-11-07T17:18:29.216Z,9.51
2022-11-07T17:20:56.897Z,9.58
2022-11-07T17:23:29.879Z,9.53
2022-11-07T17:26:02.526Z,9.51
2022-11-07T17:28:30.184Z,9.54
2022-11-07T17:30:57.645Z,9.51
2022-11-07T17:33:25.071Z,9.50
2022-11-07T17:35:55.426Z,9.55
2022-11-07T17:38:22.974Z,9.50
2022-11-07T17:40:50.403Z,9.54
2022-11-07T17:43:18.071Z,9.50
2022-11-07T17:45:45.662Z,9.51
2022-11-07T17:48:13.332Z,9.48
2022-11-07T17:50:40.911Z,9.47
2022-11-07T17:53:08.386Z,9.46
2022-11-07T17:55:36.059Z,9.43
2022-11-07T17:58:03.535Z,9.42
2022-11-07T18:00:31.037Z,9.39
2022-11-07T18:02:58.551Z,9.38
2022-11-07T18:05:32.880Z,9.35
2022-11-07T18:08:01.335Z,9.29
2022-11-07T18:10:29.909Z,9.26
2022-11-07T18:12:57.776Z,9.23
2022-11-07T18:15:25.346Z,9.23
2022-11-07T18:17:52.827Z,9.19
2022-11-07T18:20:20.315Z,9.17
2022-11-07T18:22:47.790Z,9.17
2022-11-07T18:25:15.282Z,9.14
2022-11-07T18:27:42.775Z,9.14
2022-11-07T18:30:11.131Z,9.07
2022-11-07T18:32:38.600Z,9.03
2022-11-07T18:35:06.523Z,9.08
2022-11-07T18:37:34.315Z,9.06
2022-11-07T18:40:01.805Z,9.16
2022-11-07T18:42:29.443Z,9.23
2022-11-07T18:44:57.265Z,9.24
2022-11-07T18:47:24.765Z,9.28
2022-11-07T18:49:56.897Z,9.33
2022-11-07T18:52:24.957Z,9.29
2022-11-07T18:54:52.703Z,9.33
2022-11-07T18:57:20.136Z,9.37
2022-11-07T18:59:47.647Z,9.35
2022-11-07T19:02:15.725Z,9.33
2022-11-07T19:04:44.827Z,9.37
2022-11-07T19:07:12.318Z,9.40
2022-11-07T19:09:39.731Z,9.42
2022-11-07T19:12:07.521Z,9.39
2022-11-07T19:14:35.293Z,9.40
2022-11-07T19:17:02.703Z,9.44
2022-11-07T19:19:30.264Z,9.42
2022-11-07T19:21:57.681Z,9.46
2022-11-07T19:24:25.385Z,9.48
2022-11-07T19:26:52.844Z,9.47
2022-11-07T19:29:20.390Z,9.43
2022-11-07T19:31:47.887Z,9.40
2022-11-07T19:34:16.993Z,9.39
2022-11-07T19:36:44.502Z,9.37
2022-11-07T19:39:12.010Z,9.33
2022-11-07T19:41:39.471Z,9.32
2022-11-07T19:44:07.300Z,9.31
2022-11-07T19:46:34.742Z,9.37
2022-11-07T19:49:02.253Z,9.37
2022-11-07T19:51:29.854Z,9.34
2022-11-07T19:53:59.899Z,9.31
2022-11-07T19:56:31.273Z,9.29
2022-11-07T19:59:01.460Z,9.28
2022-11-07T20:01:31.678Z,9.29
2022-11-07T20:04:00.201Z,9.28
2022-11-07T20:06:32.294Z,9.27
2022-11-07T20:09:04.798Z,9.27
2022-11-07T20:11:32.879Z,9.30
2022-11-07T20:14:03.658Z,9.27
2022-11-07T20:16:33.553Z,9.22
2022-11-07T20:19:01.652Z,9.19
2022-11-07T20:21:30.430Z,9.15
2022-11-07T20:23:59.542Z,9.14
2022-11-07T20:26:29.540Z,9.13
2022-11-07T20:28:57.161Z,9.12
2022-11-07T20:31:30.111Z,9.12
2022-11-07T20:33:59.414Z,9.11
2022-11-07T20:36:27.181Z,9.10
2022-11-07T20:38:55.566Z,9.14
2022-11-07T20:41:23.727Z,9.16
2022-11-07T20:43:55.741Z,9.21
2022-11-07T20:46:24.098Z,9.22
2022-11-07T20:48:52.281Z,9.26
2022-11-07T20:51:22.859Z,9.19
2022-11-07T20:53:50.878Z,9.10
2022-11-07T20:56:24.371Z,9.02
2022-11-07T20:58:51.952Z,9.02
2022-11-07T21:01:25.229Z,9.03
2022-11-07T21:03:52.982Z,9.04
2022-11-07T21:06:20.802Z,9.04
2022-11-07T21:08:50.385Z,9.07
2022-11-07T21:11:17.922Z,9.10
2022-11-07T21:13:51.541Z,9.10
2022-11-07T21:16:22.431Z,9.08
2022-11-07T21:18:54.352Z,9.12
2022-11-07T21:21:27.676Z,9.20
2022-11-07T21:23:57.685Z,9.19
2022-11-07T21:26:27.585Z,9.13
2022-11-07T21:28:56.509Z,9.10
2022-11-07T21:31:28.544Z,9.09
2022-11-07T21:33:57.074Z,9.06
2022-11-07T21:36:30.547Z,9.01
2022-11-07T21:38:59.795Z,8.95
2022-11-07T21:41:28.274Z,8.93
2022-11-07T21:43:56.932Z,8.94
2022-11-07T21:46:30.755Z,8.98
2022-11-07T21:48:59.225Z,9.00
2022-11-07T21:51:29.868Z,8.99
2022-11-07T21:53:58.320Z,9.03
2022-11-07T21:56:30.827Z,9.01
2022-11-07T21:59:04.357Z,9.00
2022-11-07T22:01:35.450Z,8.99
2022-11-07T22:04:07.857Z,8.99
2022-11-07T22:06:39.494Z,8.94
2022-11-07T22:09:08.331Z,8.94
2022-11-07T22:11:35.731Z,8.97
2022-11-07T22:14:03.566Z,8.96
2022-11-07T22:16:31.668Z,8.95
2022-11-07T22:19:00.243Z,8.96
2022-11-07T22:21:27.766Z,8.96
2022-11-07T22:23:56.273Z,8.95
2022-11-07T22:26:26.088Z,8.90
2022-11-07T22:28:54.461Z,8.81
2022-11-07T22:31:24.612Z,8.81
2022-11-07T22:33:53.257Z,8.84
2022-11-07T22:36:21.497Z,8.89
2022-11-07T22:38:49.321Z,8.93
2022-11-07T22:41:27.454Z,8.91
2022-11-07T22:43:56.797Z,8.89
2022-11-07T22:46:27.613Z,8.95
2022-11-07T22:48:56.441Z,8.93
2022-11-07T22:51:29.656Z,8.98
2022-11-07T22:53:58.202Z,8.98
2022-11-07T22:56:26.153Z,8.96
2022-11-07T22:58:53.969Z,8.94
2022-11-07T23:01:30.181Z,9.00
2022-11-07T23:03:59.060Z,8.98
2022-11-07T23:06:27.852Z,8.97
2022-11-07T23:08:57.899Z,8.96
2022-11-07T23:11:47.997Z,8.85
2022-11-07T23:14:19.234Z,8.89
2022-11-07T23:16:52.232Z,8.90
2022-11-07T23:19:22.162Z,8.92
2022-11-07T23:21:51.047Z,8.99
2022-11-07T23:24:19.116Z,9.05
2022-11-07T23:26:46.891Z,9.08
2022-11-07T23:29:24.092Z,9.10
2022-11-07T23:31:52.297Z,9.13
2022-11-07T23:34:21.907Z,9.10
2022-11-07T23:36:52.768Z,9.11
2022-11-07T23:39:22.908Z,9.15
2022-11-07T23:41:50.537Z,9.19
2022-11-07T23:44:18.560Z,9.20
2022-11-07T23:47:04.969Z,9.19
2022-11-07T23:49:51.218Z,9.17
2022-11-07T23:52:19.048Z,9.22
2022-11-07T23:55:05.430Z,9.19
2022-11-07T23:57:55.023Z,9.17
